Time;durP1;ratioP1;P1;durP2;ratioP2;P2;SDS_P1;SDS_P2;PMS_P1;PMS_P2;Temp;Humidity;BMP_temperature;BMP_pressure;BME280_temperature;BME280_humidity;BME280_pressure;Samples;Min_cycle;Max_cycle;Signal;HPM_P1;HPM_P2
2021/10/02 00:41:03;;;;;;;;;4.25;3.25;;;;;21.03;57.10;100602.91;6187316;23;45487;-76
2021/10/02 00:46:15;;;;;;;;;5.75;4.00;;;;;20.99;57.15;100593.31;6143497;23;45187;-76
2021/10/02 00:48:40;;;;;;;;;5.75;5.50;;;;;20.99;57.23;100593.31;6160273;23;45266;-76
2021/10/02 00:51:07;;;;;;;;;4.75;4.75;;;;;21.01;57.03;100590.59;6135360;23;45158;-76
2021/10/02 00:53:32;;;;;;;;;4.50;4.50;;;;;20.99;57.21;100592.47;6186929;23;46377;-77
2021/10/02 00:55:58;;;;;;;;;5.75;4.50;;;;;20.92;57.34;100580.31;6186911;23;45285;-77
2021/10/02 00:58:23;;;;;;;;;9.75;4.00;;;;;20.95;56.92;100589.06;6161011;23;45364;-77
2021/10/02 01:00:51;;;;;;;;;6.75;4.25;;;;;20.97;57.22;100581.03;6160595;23;45459;-77
2021/10/02 01:03:23;;;;;;;;;6.00;4.00;;;;;20.96;57.19;100579.31;6160882;23;45372;-77
2021/10/02 01:06:07;;;;;;;;;5.25;5.25;;;;;20.96;57.29;100580.19;6135905;23;45394;-77
2021/10/02 01:08:36;;;;;;;;;5.00;5.00;;;;;20.95;57.10;100582.88;6160099;23;45355;-77
2021/10/02 01:11:24;;;;;;;;;5.25;2.25;;;;;20.94;57.31;100586.44;6160354;23;45509;-77
2021/10/02 01:14:01;;;;;;;;;4.00;4.00;;;;;20.92;57.30;100578.53;6187094;23;45183;-77
2021/10/02 01:16:34;;;;;;;;;6.50;4.00;;;;;20.92;57.26;100583.84;6187036;23;45112;-77
2021/10/02 01:19:02;;;;;;;;;4.25;4.25;;;;;20.91;57.37;100591.88;6161268;23;45235;-77
2021/10/02 01:21:48;;;;;;;;;7.00;5.00;;;;;20.83;57.12;100578.88;6186944;23;45197;-77
2021/10/02 01:24:19;;;;;;;;;4.25;4.00;;;;;20.89;57.18;100590.13;6139778;23;46074;-77
2021/10/02 01:27:12;;;;;;;;;6.00;4.25;;;;;20.88;57.30;100585.75;6186100;23;45211;-77
2021/10/02 01:29:38;;;;;;;;;6.00;5.00;;;;;20.81;57.52;100567.47;6187143;23;45460;-77
2021/10/02 01:32:13;;;;;;;;;4.25;4.00;;;;;20.85;57.65;100567.31;6159731;23;45415;-77
2021/10/02 01:47:54;;;;;;;;;7.75;4.75;;;;;20.86;57.54;100546.94;6143404;23;45225;-77
2021/10/02 01:50:30;;;;;;;;;4.50;4.00;;;;;20.88;57.18;100553.91;6187164;23;45167;-77
2021/10/02 01:52:56;;;;;;;;;4.25;3.50;;;;;20.88;57.52;100539.78;6186714;23;45175;-77
2021/10/02 01:55:23;;;;;;;;;4.50;4.25;;;;;20.87;57.35;100532.75;6186199;23;46170;-77
2021/10/02 01:57:51;;;;;;;;;5.00;5.00;;;;;20.83;57.14;100529.34;6159866;23;45264;-77
2021/10/02 02:00:16;;;;;;;;;6.25;4.50;;;;;20.86;57.26;100539.00;6110839;23;45376;-77
2021/10/02 02:02:45;;;;;;;;;5.00;4.00;;;;;20.86;57.53;100537.19;6186401;23;47906;-77
2021/10/02 02:05:10;;;;;;;;;5.00;5.00;;;;;20.82;57.54;100516.13;6186915;23;45217;-77
2021/10/02 02:07:37;;;;;;;;;3.75;3.75;;;;;20.84;57.48;100519.59;6135532;23;45187;-77
2021/10/02 02:10:04;;;;;;;;;6.75;5.00;;;;;20.84;57.40;100512.50;6160497;23;45329;-77
2021/10/02 02:12:32;;;;;;;;;5.00;4.00;;;;;20.76;57.69;100511.94;6159955;23;45340;-77
2021/10/02 02:15:18;;;;;;;;;3.00;3.00;;;;;20.83;57.40;100518.72;6111336;23;47242;-77
2021/10/02 02:17:45;;;;;;;;;4.00;4.00;;;;;20.76;57.35;100505.75;6185322;23;45231;-77
2021/10/02 02:20:15;;;;;;;;;4.00;3.00;;;;;20.78;57.53;100498.63;6110854;23;45204;-77
2021/10/02 02:22:41;;;;;;;;;4.00;3.00;;;;;20.82;57.44;100517.00;6161417;23;45305;-77
2021/10/02 02:25:07;;;;;;;;;6.00;6.00;;;;;20.78;57.66;100510.09;6186238;23;45850;-77
2021/10/02 02:27:32;;;;;;;;;5.25;4.25;;;;;20.78;57.71;100509.22;6186647;23;45111;-77
2021/10/02 02:29:57;;;;;;;;;4.25;3.75;;;;;20.80;57.36;100494.97;6134899;23;45335;-77
2021/10/02 02:32:23;;;;;;;;;3.75;3.75;;;;;20.76;57.65;100498.69;6159420;23;45727;-77
2021/10/02 02:34:49;;;;;;;;;5.50;4.25;;;;;20.77;57.54;100500.41;6185968;23;46493;-77
2021/10/02 02:37:14;;;;;;;;;3.75;3.75;;;;;20.79;57.40;100497.69;6186590;23;45095;-77
2021/10/02 02:39:40;;;;;;;;;5.25;4.00;;;;;20.72;57.67;100473.19;6134062;23;45167;-78
2021/10/02 02:42:05;;;;;;;;;4.50;4.50;;;;;20.78;57.40;100480.91;6159545;23;45211;-77
2021/10/02 02:44:31;;;;;;;;;5.00;4.00;;;;;20.68;57.52;100453.00;6159481;23;54704;-77
2021/10/02 02:47:00;;;;;;;;;4.50;4.00;;;;;20.78;57.56;100470.31;6159505;23;58492;-77
2021/10/02 02:49:50;;;;;;;;;4.75;4.50;;;;;20.78;57.70;100491.53;6159908;23;45393;-77
2021/10/02 02:52:24;;;;;;;;;5.00;5.00;;;;;20.76;57.59;100480.13;6184106;23;45516;-77
2021/10/02 02:54:55;;;;;;;;;5.25;3.00;;;;;20.76;57.65;100466.84;6134358;23;48511;-77
2021/10/02 02:57:21;;;;;;;;;6.00;3.25;;;;;20.77;57.85;100465.94;6110462;23;45268;-77
2021/10/02 02:59:56;;;;;;;;;5.50;4.75;;;;;20.70;57.69;100451.16;6135646;23;45428;-77
2021/10/02 03:02:21;;;;;;;;;7.00;4.00;;;;;20.71;57.70;100441.41;6160363;23;45378;-77
2021/10/02 03:04:47;;;;;;;;;5.00;4.50;;;;;20.77;57.64;100452.66;6134776;23;45389;-77
2021/10/02 03:07:13;;;;;;;;;4.25;4.25;;;;;20.71;57.68;100452.88;6159740;23;45221;-77
2021/10/02 03:09:42;;;;;;;;;4.00;4.00;;;;;20.74;57.53;100455.41;6135470;23;45247;-77
2021/10/02 03:12:08;;;;;;;;;5.75;4.25;;;;;20.70;57.53;100450.28;6135857;23;45417;-77
2021/10/02 03:14:35;;;;;;;;;4.00;4.00;;;;;20.70;57.74;100440.56;6111375;23;47915;-77
2021/10/02 03:17:00;;;;;;;;;6.00;5.00;;;;;20.71;57.59;100426.38;6160891;23;45313;-77
2021/10/02 03:19:26;;;;;;;;;4.00;4.00;;;;;20.73;57.42;100426.31;6161459;23;45396;-77
2021/10/02 03:21:51;;;;;;;;;5.00;4.00;;;;;20.75;57.54;100445.66;6135076;23;54829;-77
2021/10/02 03:24:17;;;;;;;;;5.00;5.00;;;;;20.68;57.55;100446.84;6161052;23;45391;-77
2021/10/02 03:26:42;;;;;;;;;5.50;3.25;;;;;20.70;57.47;100456.47;6160326;23;45278;-77
2021/10/02 03:29:07;;;;;;;;;5.50;4.25;;;;;20.73;57.74;100461.63;6136339;23;45192;-77
2021/10/02 03:31:33;;;;;;;;;3.00;3.00;;;;;20.69;57.63;100444.13;6160750;23;45180;-77
2021/10/02 03:33:58;;;;;;;;;3.25;3.00;;;;;20.72;57.73;100428.09;6111073;23;45966;-78
2021/10/02 03:36:24;;;;;;;;;4.25;3.25;;;;;20.72;57.85;100416.63;6160132;23;57096;-79
2021/10/02 03:38:50;;;;;;;;;4.25;4.25;;;;;20.70;57.79;100410.50;6136118;23;45348;-78
2021/10/02 03:41:15;;;;;;;;;5.50;4.00;;;;;20.64;57.75;100398.34;6135721;23;45407;-78
2021/10/02 03:43:40;;;;;;;;;5.00;3.50;;;;;20.68;57.82;100407.94;6187220;23;46136;-78
2021/10/02 03:46:06;;;;;;;;;4.25;3.00;;;;;20.69;57.52;100412.31;6187434;23;45112;-78
2021/10/02 03:48:32;;;;;;;;;3.50;3.00;;;;;20.65;57.60;100402.72;6187366;23;45172;-78
2021/10/02 03:50:58;;;;;;;;;5.00;5.00;;;;;20.62;57.75;100392.25;6135988;23;45637;-78
2021/10/02 03:53:24;;;;;;;;;3.75;3.75;;;;;20.66;57.75;100392.97;6136823;23;45392;-78
2021/10/02 03:55:49;;;;;;;;;4.00;4.00;;;;;20.69;57.76;100390.22;6160711;23;45337;-78
2021/10/02 03:58:15;;;;;;;;;4.00;3.25;;;;;20.66;58.05;100375.28;6161425;23;45239;-78
2021/10/02 04:00:40;;;;;;;;;3.50;3.50;;;;;20.62;57.84;100384.28;6136312;23;45276;-78
2021/10/02 04:03:06;;;;;;;;;5.00;5.00;;;;;20.68;57.95;100399.97;6160166;23;61518;-78
2021/10/02 04:05:31;;;;;;;;;5.25;4.00;;;;;20.69;57.71;100408.78;6160919;23;49900;-78
2021/10/02 04:07:56;;;;;;;;;8.50;4.75;;;;;20.63;57.90;100393.09;6160763;23;53113;-78
2021/10/02 04:10:22;;;;;;;;;3.00;3.00;;;;;20.65;57.67;100385.94;6135778;23;45602;-78
2021/10/02 04:12:47;;;;;;;;;5.00;4.50;;;;;20.69;58.10;100385.78;6161086;23;46343;-78
2021/10/02 04:15:13;;;;;;;;;4.00;4.00;;;;;20.70;57.55;100381.34;6160422;23;56231;-74
2021/10/02 04:17:38;;;;;;;;;4.25;4.25;;;;;20.71;58.07;100389.25;6161178;23;45201;-74
2021/10/02 04:20:04;;;;;;;;;8.75;6.50;;;;;20.74;58.40;100381.16;6160623;23;45454;-74
2021/10/02 04:22:30;;;;;;;;;10.75;4.50;;;;;20.76;58.19;100386.38;6186663;23;45758;-75
2021/10/02 04:24:55;;;;;;;;;5.00;4.75;;;;;20.75;58.38;100390.84;6186893;23;45230;-75
2021/10/02 04:27:20;;;;;;;;;9.75;7.00;;;;;20.75;58.41;100388.19;6187168;23;50269;-75
2021/10/02 04:29:46;;;;;;;;;9.25;5.00;;;;;20.72;58.57;100385.66;6159509;23;55893;-75
2021/10/02 04:32:11;;;;;;;;;4.75;4.50;;;;;20.74;58.34;100388.25;6184947;23;47203;-75
2021/10/02 04:34:37;;;;;;;;;7.25;7.25;;;;;20.73;58.34;100389.16;6187215;23;45235;-75
2021/10/02 04:37:02;;;;;;;;;9.00;4.50;;;;;20.73;57.98;100382.06;6160919;23;45316;-75
2021/10/02 04:39:28;;;;;;;;;6.00;3.25;;;;;20.66;58.55;100372.63;6186906;23;45282;-75
2021/10/02 04:41:53;;;;;;;;;7.00;4.00;;;;;20.66;58.21;100374.41;6186801;23;45351;-75
2021/10/02 04:44:19;;;;;;;;;5.75;5.50;;;;;20.73;58.49;100397.13;6187146;23;45207;-75
2021/10/02 04:46:44;;;;;;;;;5.25;5.00;;;;;20.67;58.38;100386.75;6187207;23;45252;-75
2021/10/02 04:49:10;;;;;;;;;6.00;4.00;;;;;20.65;58.24;100368.25;6186850;23;45416;-75
2021/10/02 04:51:39;;;;;;;;;5.25;4.50;;;;;20.65;58.48;100368.25;6186921;23;45479;-75
2021/10/02 04:54:04;;;;;;;;;6.25;5.75;;;;;20.69;58.55;100385.78;6187158;23;45091;-75
2021/10/02 04:56:30;;;;;;;;;4.50;3.50;;;;;20.63;57.99;100386.00;6186987;23;45222;-75
2021/10/02 04:58:55;;;;;;;;;7.25;4.00;;;;;20.64;57.94;100377.13;6134884;23;45606;-75
2021/10/02 05:01:20;;;;;;;;;7.25;5.00;;;;;20.66;58.46;100380.56;6159925;23;47098;-76
2021/10/02 05:03:47;;;;;;;;;6.50;5.50;;;;;20.64;58.20;100378.91;6160136;23;45174;-75
2021/10/02 05:06:13;;;;;;;;;8.50;7.50;;;;;20.62;58.09;100381.63;6187504;23;45361;-75
2021/10/02 05:08:38;;;;;;;;;4.00;2.50;;;;;20.69;58.01;100395.53;6160210;23;45471;-75
2021/10/02 05:11:04;;;;;;;;;5.50;5.00;;;;;20.61;58.14;100390.50;6186587;23;45267;-76
2021/10/02 05:13:32;;;;;;;;;5.00;5.00;;;;;20.60;57.93;100399.41;6187298;23;45273;-76
2021/10/02 05:15:57;;;;;;;;;4.25;4.00;;;;;20.64;58.13;100401.00;6137409;23;45267;-76
2021/10/02 05:18:23;;;;;;;;;6.00;4.25;;;;;20.70;58.14;100398.13;6187017;23;45230;-75
2021/10/02 05:20:48;;;;;;;;;4.00;3.50;;;;;20.70;58.06;100394.59;6186981;23;45838;-75
2021/10/02 05:23:14;;;;;;;;;6.75;4.75;;;;;20.65;57.87;100385.94;6159787;23;45751;-75
2021/10/02 05:25:39;;;;;;;;;5.75;4.25;;;;;20.65;57.90;100372.69;6160466;23;45253;-75
2021/10/02 05:28:05;;;;;;;;;4.00;3.00;;;;;20.74;57.80;100372.34;6159736;23;56909;-75
2021/10/02 05:30:30;;;;;;;;;6.25;5.00;;;;;20.66;57.93;100356.72;6134955;23;46464;-75
2021/10/02 05:32:55;;;;;;;;;7.50;4.00;;;;;20.75;57.71;100360.78;6158826;23;45224;-75
2021/10/02 05:35:21;;;;;;;;;4.75;3.75;;;;;20.65;57.83;100332.91;6159254;23;52762;-75
2021/10/02 05:37:47;;;;;;;;;8.25;6.00;;;;;20.68;57.48;100338.97;6160288;23;45206;-76
2021/10/02 05:40:12;;;;;;;;;4.25;4.25;;;;;20.73;57.50;100350.25;6186212;23;45298;-76
2021/10/02 05:42:38;;;;;;;;;3.00;3.00;;;;;20.69;57.75;100348.66;6186782;23;45256;-75
2021/10/02 05:45:06;;;;;;;;;5.00;4.00;;;;;20.74;58.67;100343.16;6162797;23;45857;-76
2021/10/02 05:47:31;;;;;;;;;4.00;4.00;;;;;20.68;59.07;100322.19;6111265;23;45342;-82
2021/10/02 05:49:57;;;;;;;;;4.25;4.25;;;;;20.78;59.31;100334.19;6135077;23;46947;-71
2021/10/02 05:52:22;;;;;;;;;3.75;3.50;;;;;20.82;59.71;100338.41;6134988;23;45650;-72
2021/10/02 05:54:48;;;;;;;;;6.25;4.00;;;;;20.81;59.71;100329.59;6159854;23;45199;-83
2021/10/02 05:57:13;;;;;;;;;6.00;3.00;;;;;20.78;60.02;100318.25;6135529;23;45838;-75
2021/10/02 05:59:38;;;;;;;;;5.00;4.00;;;;;20.73;60.18;100314.91;6135060;23;46639;-79
2021/10/02 06:02:04;;;;;;;;;5.00;5.00;;;;;20.77;60.43;100329.81;6110243;23;45180;-78
2021/10/02 06:04:30;;;;;;;;;5.50;4.00;;;;;20.82;60.24;100344.59;6135047;23;45217;-83
2021/10/02 06:06:55;;;;;;;;;5.00;4.00;;;;;20.82;60.34;100338.41;6136193;23;45379;-84
2021/10/02 06:09:20;;;;;;;;;5.50;4.50;;;;;20.79;59.98;100333.25;6110367;23;46855;-82
2021/10/02 06:11:46;;;;;;;;;4.75;3.75;;;;;20.79;59.76;100322.63;6159555;23;45288;-79
2021/10/02 06:14:12;;;;;;;;;5.25;5.00;;;;;20.87;60.20;100339.97;6186995;23;45174;-77
2021/10/02 06:16:38;;;;;;;;;3.50;3.00;;;;;20.86;60.27;100340.91;6186706;23;45446;-77
2021/10/02 06:19:07;;;;;;;;;6.50;4.50;;;;;20.85;59.84;100338.31;6134864;23;47111;-75
2021/10/02 06:21:33;;;;;;;;;6.75;5.00;;;;;20.87;59.81;100349.72;6186362;23;45197;-75
2021/10/02 06:23:59;;;;;;;;;6.75;5.00;;;;;20.82;60.01;100338.41;6186798;23;45151;-76
2021/10/02 06:26:26;;;;;;;;;6.50;5.00;;;;;20.83;59.80;100345.44;6135347;23;45438;-76
2021/10/02 06:28:51;;;;;;;;;4.75;3.25;;;;;20.83;59.82;100342.78;6186567;23;46030;-75
2021/10/02 06:31:17;;;;;;;;;5.00;3.75;;;;;20.80;59.74;100334.97;6159455;23;57109;-75
2021/10/02 06:33:42;;;;;;;;;5.00;3.25;;;;;20.82;60.02;100319.84;6186409;23;45350;-76
2021/10/02 06:36:07;;;;;;;;;4.50;4.50;;;;;20.75;59.90;100311.25;6186487;23;46240;-74
2021/10/02 06:38:33;;;;;;;;;6.25;5.50;;;;;20.73;59.87;100310.47;6134326;23;46989;-75
2021/10/02 06:40:58;;;;;;;;;7.25;3.75;;;;;20.78;60.13;100320.91;6159437;23;45325;-74
2021/10/02 06:43:24;;;;;;;;;7.00;4.50;;;;;20.80;60.03;100327.88;6186085;23;52120;-76
2021/10/02 06:45:49;;;;;;;;;5.00;4.25;;;;;20.73;60.31;100312.25;6187385;23;61700;-75
2021/10/02 06:48:14;;;;;;;;;6.75;5.50;;;;;20.74;60.62;100325.47;6187760;23;45293;-75
2021/10/02 06:50:40;;;;;;;;;6.75;4.25;;;;;20.75;60.53;100324.53;6160838;23;46244;-75
2021/10/02 06:53:05;;;;;;;;;3.25;3.25;;;;;20.69;60.71;100322.13;6136825;23;45257;-75
2021/10/02 06:55:31;;;;;;;;;4.25;4.00;;;;;20.81;60.92;100344.66;6135848;23;55090;-77
2021/10/02 06:57:56;;;;;;;;;5.50;4.50;;;;;20.72;60.93;100331.75;6160709;23;47948;-75
2021/10/02 07:00:22;;;;;;;;;6.00;4.25;;;;;20.70;60.88;100326.50;6160998;23;45257;-75
2021/10/02 07:02:47;;;;;;;;;4.50;3.75;;;;;20.74;61.15;100335.19;6136001;23;45255;-74
2021/10/02 07:05:14;;;;;;;;;4.00;3.00;;;;;20.81;61.49;100334.91;6161227;23;45214;-73
2021/10/02 07:07:40;;;;;;;;;3.25;3.00;;;;;20.78;61.54;100321.78;6160516;23;47230;-73
2021/10/02 07:10:06;;;;;;;;;7.00;4.75;;;;;20.79;61.32;100320.00;6160375;23;45329;-73
2021/10/02 07:12:32;;;;;;;;;6.75;5.25;;;;;20.75;61.45;100313.91;6111519;23;45237;-73
2021/10/02 07:14:57;;;;;;;;;4.00;4.00;;;;;20.80;61.61;100330.53;6187680;23;45458;-73
2021/10/02 07:17:23;;;;;;;;;6.50;4.00;;;;;20.80;61.49;100341.13;6187358;23;45661;-74
2021/10/02 07:19:48;;;;;;;;;4.75;4.00;;;;;20.80;61.73;100340.28;6187572;23;45171;-74
2021/10/02 07:22:13;;;;;;;;;4.75;4.00;;;;;20.80;61.50;100343.78;6187432;23;48245;-73
2021/10/02 07:24:39;;;;;;;;;2.00;2.00;;;;;20.78;61.88;100347.44;6160774;23;45289;-73
2021/10/02 07:27:04;;;;;;;;;5.50;4.00;;;;;20.81;61.51;100339.34;6160606;23;54993;-72
2021/10/02 07:29:30;;;;;;;;;6.00;4.75;;;;;20.80;61.80;100333.19;6185366;23;51580;-73
2021/10/02 07:31:55;;;;;;;;;4.00;3.00;;;;;20.80;61.18;100313.75;6135773;23;45607;-72
2021/10/02 07:34:20;;;;;;;;;4.25;4.25;;;;;20.71;61.60;100296.41;6136216;23;45408;-73
2021/10/02 07:36:46;;;;;;;;;7.00;4.00;;;;;20.78;61.36;100297.91;6135136;23;59549;-73
2021/10/02 07:39:11;;;;;;;;;6.00;5.00;;;;;20.78;61.08;100297.03;6186818;23;45395;-73
2021/10/02 07:41:41;;;;;;;;;5.00;5.00;;;;;20.79;61.45;100296.13;6187461;23;45227;-73
2021/10/02 07:44:07;;;;;;;;;4.75;3.00;;;;;20.72;61.21;100279.56;6187370;23;45173;-73
2021/10/02 07:46:33;;;;;;;;;6.00;3.75;;;;;20.81;60.92;100286.31;6135738;23;45306;-73
2021/10/02 07:48:58;;;;;;;;;5.25;3.00;;;;;20.81;60.85;100284.50;6187299;23;45266;-73
2021/10/02 07:51:24;;;;;;;;;9.75;4.00;;;;;20.78;60.75;100267.88;6160936;23;45362;-73
2021/10/02 07:53:51;;;;;;;;;4.00;3.00;;;;;20.74;60.86;100272.41;6135923;23;45479;-73
2021/10/02 07:56:17;;;;;;;;;3.00;3.00;;;;;20.80;60.81;100266.00;6186566;23;45298;-73
2021/10/02 07:58:42;;;;;;;;;4.00;2.75;;;;;20.83;60.59;100280.00;6160995;23;45360;-72
2021/10/02 08:01:07;;;;;;;;;3.50;3.50;;;;;20.80;60.47;100277.47;6161278;23;45201;-72
2021/10/02 08:03:33;;;;;;;;;6.00;3.00;;;;;20.82;60.34;100283.59;6160837;23;45302;-72
2021/10/02 08:05:59;;;;;;;;;3.00;3.00;;;;;20.82;60.33;100285.38;6135600;23;46798;-73
2021/10/02 08:08:24;;;;;;;;;2.50;2.50;;;;;20.82;60.41;100280.94;6110993;23;45183;-73
2021/10/02 08:10:50;;;;;;;;;2.00;2.00;;;;;20.77;60.12;100280.28;6160827;23;45273;-72
2021/10/02 08:13:16;;;;;;;;;5.75;2.50;;;;;20.81;60.02;100281.84;6111329;23;45188;-73
2021/10/02 08:15:42;;;;;;;;;6.00;3.50;;;;;20.81;59.92;100279.22;6187510;23;45194;-73
2021/10/02 08:18:09;;;;;;;;;4.75;3.00;;;;;20.77;59.99;100259.06;6160339;23;45295;-73
2021/10/02 08:20:34;;;;;;;;;5.50;3.50;;;;;20.81;59.78;100260.63;6160452;23;45431;-73
2021/10/02 08:22:59;;;;;;;;;4.75;2.50;;;;;20.76;59.78;100248.47;6187333;23;45506;-73
2021/10/02 08:25:25;;;;;;;;;5.50;4.75;;;;;20.81;59.79;100250.03;6187080;23;45575;-73
2021/10/02 08:27:51;;;;;;;;;3.50;2.75;;;;;20.77;59.63;100243.13;6135401;23;45348;-73
2021/10/02 08:30:17;;;;;;;;;5.00;4.00;;;;;20.76;59.96;100233.47;6160859;23;45324;-73
2021/10/02 08:32:42;;;;;;;;;3.00;2.00;;;;;20.80;59.46;100242.13;6135858;23;45273;-74
2021/10/02 08:35:08;;;;;;;;;6.50;3.00;;;;;20.80;59.65;100237.69;6186995;23;46246;-73
2021/10/02 08:37:34;;;;;;;;;5.00;3.00;;;;;20.78;59.75;100231.59;6135329;23;45191;-73
2021/10/02 08:39:59;;;;;;;;;3.75;3.25;;;;;20.79;59.82;100232.47;6159650;23;45235;-74
2021/10/02 08:42:25;;;;;;;;;2.75;1.50;;;;;20.79;59.48;100224.50;6160420;23;48966;-73
2021/10/02 08:44:51;;;;;;;;;4.75;3.00;;;;;20.81;59.34;100230.59;6160708;23;45929;-73
2021/10/02 08:47:19;;;;;;;;;3.50;2.25;;;;;20.80;59.34;100212.97;6187103;23;45174;-73
2021/10/02 08:49:45;;;;;;;;;3.00;3.00;;;;;20.78;59.21;100210.38;6187438;23;45293;-74
2021/10/02 08:52:10;;;;;;;;;3.50;2.50;;;;;20.76;59.63;100204.28;6135497;23;46173;-73
2021/10/02 08:54:38;;;;;;;;;4.00;4.00;;;;;20.81;59.28;100204.94;6160601;23;45877;-74
2021/10/02 08:57:09;;;;;;;;;6.00;4.25;;;;;20.71;59.27;100192.13;6160735;23;45245;-73
2021/10/02 08:59:36;;;;;;;;;3.50;3.50;;;;;20.79;59.30;100211.25;6187502;23;45435;-74
2021/10/02 09:02:01;;;;;;;;;5.50;3.00;;;;;20.80;59.58;100208.53;6160566;23;45386;-74
2021/10/02 09:04:26;;;;;;;;;5.00;3.00;;;;;20.82;59.47;100204.00;6159970;23;45585;-74
2021/10/02 09:06:52;;;;;;;;;3.75;3.25;;;;;20.77;59.70;100189.25;6159778;23;53998;-74
2021/10/02 09:09:17;;;;;;;;;1.75;1.75;;;;;20.86;59.44;100202.97;6160353;23;50627;-74
2021/10/02 09:11:43;;;;;;;;;2.25;2.25;;;;;20.82;59.50;100193.41;6160303;23;46091;-73
2021/10/02 09:14:11;;;;;;;;;4.50;2.75;;;;;20.83;59.60;100192.47;6160495;23;45166;-74
2021/10/02 09:16:40;;;;;;;;;5.00;4.00;;;;;20.89;59.52;100197.53;6137031;23;45257;-74
2021/10/02 09:19:08;;;;;;;;;5.00;4.00;;;;;20.91;59.24;100204.56;6135993;23;45222;-74
2021/10/02 09:21:58;;;;;;;;;4.00;4.00;;;;;20.91;59.09;100186.84;6160561;23;45186;-74
2021/10/02 09:24:25;;;;;;;;;7.25;4.25;;;;;20.92;59.14;100166.50;6113161;23;46249;-74
2021/10/02 09:26:51;;;;;;;;;5.00;3.00;;;;;20.93;59.03;100165.56;6135074;23;45352;-73
2021/10/02 09:29:16;;;;;;;;;3.50;3.00;;;;;20.94;59.30;100152.25;6160868;23;45239;-74
2021/10/02 09:31:42;;;;;;;;;3.00;3.00;;;;;20.84;59.14;100135.84;6187074;23;45352;-73
2021/10/02 09:34:20;;;;;;;;;3.00;3.00;;;;;20.92;58.94;100147.91;6135737;23;45890;-74
2021/10/02 09:36:45;;;;;;;;;5.00;3.00;;;;;20.99;59.38;100144.94;6159711;23;45224;-74
2021/10/02 09:39:11;;;;;;;;;5.00;3.00;;;;;21.00;59.27;100135.19;6185988;23;54621;-74
2021/10/02 09:41:48;;;;;;;;;4.50;3.25;;;;;20.92;59.13;100102.81;6186431;23;53282;-73
2021/10/02 09:44:21;;;;;;;;;3.75;3.00;;;;;21.01;58.98;100113.91;6162104;23;45429;-74
2021/10/02 09:46:46;;;;;;;;;4.00;4.00;;;;;21.02;59.15;100102.34;6160484;23;45250;-74
2021/10/02 09:49:11;;;;;;;;;4.00;3.00;;;;;21.00;58.93;100095.41;6159207;23;58840;-74
2021/10/02 09:51:41;;;;;;;;;3.00;3.00;;;;;21.02;59.20;100089.09;6159364;23;63779;-74
2021/10/02 09:54:07;;;;;;;;;4.00;4.00;;;;;21.02;58.65;100088.22;6186569;23;45516;-74
2021/10/02 09:56:32;;;;;;;;;4.50;4.25;;;;;21.04;58.92;100073.13;6186990;23;45394;-74
2021/10/02 09:58:58;;;;;;;;;3.75;3.00;;;;;21.01;58.70;100052.00;6186579;23;54318;-75
2021/10/02 10:01:25;;;;;;;;;3.00;2.75;;;;;21.07;58.98;100054.41;6187328;23;45243;-75
2021/10/02 10:03:51;;;;;;;;;7.75;4.75;;;;;21.08;58.58;100045.50;6135091;23;45651;-74
2021/10/02 10:06:18;;;;;;;;;3.50;3.00;;;;;21.00;58.31;100027.28;6159896;23;45124;-75
2021/10/02 10:08:44;;;;;;;;;2.25;2.25;;;;;21.07;58.30;100031.38;6186925;23;45350;-75
2021/10/02 10:11:11;;;;;;;;;4.00;3.00;;;;;21.10;58.35;100030.38;6186198;23;51979;-76
2021/10/02 10:13:36;;;;;;;;;2.00;2.00;;;;;21.04;58.22;100012.97;6186397;23;45308;-75
2021/10/02 10:16:05;;;;;;;;;3.00;3.00;;;;;21.03;58.30;100011.25;6160245;23;45345;-74
2021/10/02 10:18:35;;;;;;;;;4.00;2.50;;;;;21.09;57.99;100015.38;6160336;23;45267;-74
2021/10/02 10:21:04;;;;;;;;;3.00;3.00;;;;;21.09;58.39;100012.72;6189584;23;45244;-75
2021/10/02 10:23:32;;;;;;;;;4.00;4.00;;;;;21.06;55.79;100003.13;6191343;23;46561;-75
2021/10/02 10:26:14;;;;;;;;;4.00;2.75;;;;;20.97;54.85;99998.25;6190212;23;45281;-70
2021/10/02 10:28:44;;;;;;;;;2.00;2.00;;;;;20.85;54.49;99985.56;6190287;23;45258;-71
2021/10/02 10:31:18;;;;;;;;;4.25;3.00;;;;;20.74;54.12;99964.78;6189591;23;45405;-71
2021/10/02 10:33:49;;;;;;;;;2.50;2.25;;;;;20.57;53.86;99967.34;6189851;23;45403;-70
2021/10/02 10:36:15;;;;;;;;;4.75;2.25;;;;;20.53;53.37;99982.53;6163416;23;45238;-73
2021/10/02 10:38:41;;;;;;;;;2.25;2.25;;;;;20.42;52.94;99974.16;6189962;23;45167;-73
2021/10/02 10:41:06;;;;;;;;;2.75;2.75;;;;;20.35;52.47;99982.44;6163200;23;45235;-74
2021/10/02 10:43:32;;;;;;;;;3.25;2.75;;;;;20.23;52.94;99979.38;6163435;23;45417;-72
2021/10/02 10:46:10;;;;;;;;;3.25;3.25;;;;;20.24;52.90;99986.41;6189532;23;45286;-72
2021/10/02 10:48:38;;;;;;;;;2.00;2.00;;;;;20.24;53.01;99986.41;6162504;23;45334;-72
2021/10/02 10:51:06;;;;;;;;;3.75;3.75;;;;;20.25;52.86;99982.84;6162521;23;45178;-72
2021/10/02 10:53:35;;;;;;;;;3.00;2.00;;;;;20.23;52.73;99970.56;6189520;23;45226;-72
2021/10/02 10:56:01;;;;;;;;;3.00;2.75;;;;;20.19;52.44;99958.38;6189251;23;45352;-72
2021/10/02 10:58:28;;;;;;;;;2.00;2.00;;;;;20.16;52.38;99951.44;6162599;23;45341;-72
2021/10/02 11:00:54;;;;;;;;;3.00;3.00;;;;;20.11;52.21;99945.47;6162948;23;45447;-72
2021/10/02 11:03:41;;;;;;;;;4.00;3.00;;;;;20.09;52.48;99944.66;6138323;23;45223;-72
2021/10/02 11:06:11;;;;;;;;;3.25;3.00;;;;;20.09;52.54;99936.72;6138172;23;45242;-72
2021/10/02 11:08:48;;;;;;;;;3.75;3.25;;;;;20.10;52.48;99941.09;6189486;23;45266;-72
2021/10/02 11:11:14;;;;;;;;;2.25;2.25;;;;;20.07;52.51;99935.03;6189367;23;45155;-72
2021/10/02 11:13:45;;;;;;;;;4.50;3.00;;;;;20.06;52.70;99934.19;6189619;23;45614;-71
2021/10/02 11:16:36;;;;;;;;;3.25;3.00;;;;;20.03;53.09;99924.59;6187895;23;45809;-72
2021/10/02 11:19:19;;;;;;;;;3.00;3.00;;;;;20.02;53.49;99919.34;6139711;23;45196;-73
2021/10/02 11:22:04;;;;;;;;;4.00;4.00;;;;;20.05;53.33;99932.47;6159758;23;45290;-73
2021/10/02 11:24:38;;;;;;;;;2.25;2.00;;;;;20.04;53.62;99905.13;6186797;23;45941;-74
2021/10/02 11:27:03;;;;;;;;;3.50;3.00;;;;;20.01;53.61;99893.81;6187339;23;45243;-74
2021/10/02 11:29:30;;;;;;;;;4.25;3.50;;;;;20.07;53.98;99901.50;6160986;23;45285;-73
2021/10/02 11:32:21;;;;;;;;;2.00;2.00;;;;;20.09;54.02;99896.13;6158916;23;45270;-72
2021/10/02 11:35:15;;;;;;;;;1.25;1.25;;;;;20.10;54.23;99887.25;6185541;23;45362;-73
2021/10/02 11:37:48;;;;;;;;;3.00;3.00;;;;;20.10;54.21;99882.81;6144451;23;45497;-73
2021/10/02 11:40:35;;;;;;;;;3.00;3.00;;;;;20.13;54.52;99873.84;6158070;23;45414;-73
2021/10/02 11:43:13;;;;;;;;;3.75;3.75;;;;;20.15;54.74;99874.63;6182931;23;45506;-73
2021/10/02 11:45:53;;;;;;;;;3.50;2.25;;;;;20.14;54.72;99855.25;6183756;23;46971;-74
2021/10/02 11:48:20;;;;;;;;;5.00;3.00;;;;;20.10;55.08;99832.47;6158697;23;45368;-73
2021/10/02 11:51:09;;;;;;;;;4.25;4.00;;;;;20.13;54.80;99834.97;6109634;23;45409;-74
2021/10/02 11:53:44;;;;;;;;;5.75;5.00;;;;;20.15;55.05;99832.25;6138346;23;45483;-74
2021/10/02 11:56:19;;;;;;;;;3.25;3.25;;;;;20.09;55.00;99808.72;6134155;23;45482;-74
2021/10/02 11:58:45;;;;;;;;;3.25;3.25;;;;;20.11;54.76;99809.50;6159864;23;45226;-74
2021/10/02 12:01:22;;;;;;;;;5.25;5.25;;;;;20.17;55.04;99807.44;6160625;23;45618;-74
2021/10/02 12:03:49;;;;;;;;;3.00;3.00;;;;;20.10;55.22;99795.38;6185009;23;45459;-74
2021/10/02 12:06:19;;;;;;;;;4.50;3.25;;;;;20.12;54.97;99790.00;6186008;23;45408;-74
2021/10/02 12:08:48;;;;;;;;;3.25;2.50;;;;;20.17;55.23;99786.25;6135392;23;45297;-74
2021/10/02 12:11:13;;;;;;;;;4.25;4.00;;;;;20.17;54.99;99778.28;6158236;23;45360;-74
2021/10/02 12:13:42;;;;;;;;;5.00;3.75;;;;;20.13;55.45;99752.84;6184698;23;45403;-74
2021/10/02 12:16:12;;;;;;;;;5.25;4.00;;;;;20.16;55.16;99760.69;6185227;23;46068;-73
2021/10/02 12:19:00;;;;;;;;;3.00;3.00;;;;;20.14;55.51;99757.22;6184983;23;45242;-73
2021/10/02 12:21:34;;;;;;;;;2.50;2.50;;;;;20.17;55.57;99765.03;6134166;23;45321;-74
2021/10/02 12:24:16;;;;;;;;;4.00;4.00;;;;;20.19;55.62;99755.22;6160028;23;45466;-73
2021/10/02 12:26:52;;;;;;;;;7.50;4.00;;;;;20.18;55.56;99742.91;6184457;23;45400;-73